Tiempo atmosférico en la estación meteorológica de Aroche, Huelva (260 m.)



Fecha
DESCASC
Temp. máxima en grados centígrados (hora)
DESCASC
Temp. mínima en grados centígrados (hora)
DESCASC
Temp. media en grados centígrados
DESCASC
Racha de viento máxima en m/sg (hora)
DESCASC
Velocidad máxima media en intervalos de 10 minutos(hora)
DESCASC
Precipitaciones diarias en mm
DESCASC
Precipitaciones de 00:00 a 06:00 en mm
DESCASC
Precipitaciones de 06:00 a 12:00 en mm
DESCASC
Precipitaciones de 12:00 a 18:00 en mm
DESCASC
Precipitaciones de 18:00 a 24:00 en mm
DESCASC
08-12-2019 16.7 (14:20) 1.5 (06:00) 9.1 6.39 (15:00) 3.89 (14:40) 0 0 0 0 0
07-12-2019 17.8 (15:50) 3 (08:10) 10.4 8.89 (14:40) 3.89 (14:40) 0 0 0 0 0
06-12-2019 19 (15:00) 3.8 (06:10) 11.4 6.11 (15:40) 4.17 (15:40) 0 0 0 0 0
05-12-2019 16.3 (15:40) 2.6 (00:00) 9.4 9.44 (15:10) 5.28 (17:40) 0 0 0 0 0
04-12-2019 13.6 (15:50) 2 (00:00) 7.8 5.56 (12:50) 3.89 (12:50) 0 0 0 0 0
03-12-2019 15.4 (14:50) 4.3 (00:00) 9.8 8.33 (00:20) 4.44 (11:00) 0 0 0 0 0
02-12-2019 14.2 (17:20) 9 (00:00) 11.6 12.22 (16:50) 6.67 (16:20) 1 1 0 0 0
01-12-2019 13.4 (16:00) 10.3 (00:00) 11.8 6.67 (12:30) 3.89 (11:30) 12.6 0 0.8 9 2.8
30-11-2019 16.2 (15:50) 5.7 (00:00) 11 7.5 (18:10) 3.89 (18:20) 2.2 0 0 0 2.2
29-11-2019 18.1 (15:50) 8.1 (00:00) 13.1 5.28 (13:40) 2.5 (14:00) 0 0 0 0 0
28-11-2019 17.4 (14:10) 8.3 (00:00) 12.8 6.39 (14:20) 3.61 (14:20) 0 0 0 0 0
27-11-2019 16.9 (15:10) 9.1 (00:00) 13 6.39 (15:30) 3.89 (15:20) 0 0 0 0 0
26-11-2019 20 (14:50) 10.9 (00:00) 15.4 8.89 (15:30) 5.56 (15:30) 6.8 0.2 1 0 5.6
25-11-2019 18.1 (16:40) 11.5 (00:00) 14.8 5 (14:10) 3.06 (14:10) 5 1.6 3.4 0 0
24-11-2019 15.2 (15:00) 1.7 (00:00) 8.4 5.83 (12:50) 3.33 (13:10) 0 0 0 0 0
23-11-2019 14.5 (16:50) 5.5 (00:00) 10 10.56 (01:30) 6.11 (14:00) 0.4 0.4 0 0 0
22-11-2019 16.3 (15:00) 10.4 (00:00) 13.3 16.39 (15:30) 8.89 (15:30) 29.6 1.4 6.8 21.4 0
21-11-2019 15.4 (16:30) 9.7 (00:00) 12.5 4.72 (16:20) 2.78 (16:20) 12.4 2 4.2 1.2 5
20-11-2019 14.7 (15:30) 5.2 (00:00) 9.9 7.22 (12:50) 4.72 (13:20) 7.4 0.6 4.6 0 2.2
19-11-2019 13 (16:20) 1 (00:00) 7 3.61 (12:20) 2.22 (12:20) 0 0 0 0 0
18-11-2019 14.2 (16:00) 4 (00:00) 9.1 12.78 (00:40) 7.78 (00:40) 1 1 0 0 0
17-11-2019 14.3 (17:20) 0 (00:00) 7.2 9.17 (20:00) 5 (20:00) 15 0.8 2.4 1.8 10
16-11-2019 13.5 (15:50) -2.5 (-00:0) 5.5 6.94 (00:30) 3.89 (16:10) 0 0 0 0 0
15-11-2019 12.2 (14:50) 6 (00:00) 9.1 16.11 (06:50) 6.94 (06:50) 0 0 0 0 0
14-11-2019 13.3 (15:50) 7.1 (00:00) 10.2 13.89 (16:40) 7.22 (16:40) 4.6 0 1.6 1.6 1.4
13-11-2019 18.7 (14:40) 11.5 (00:00) 15.1 9.44 (12:50) 5.56 (21:20) 1.6 0 1.6 0 0
12-11-2019 16.9 (16:40) 5.8 (00:00) 11.3 9.17 (18:00) 5 (13:40) 0 0 0 0 0

Gráficas

Temp. máximas Temp. mínimas Temp. medias Precipitaciones Rachas de viento máximas Velocidades máximas media en intervalos de 10 minutos

Datos horarios

Fecha y hora oficial Temperatura (ºC) Velocidad del viento (km/h) Dirección del viento Racha (km/h) Dirección de racha Precipitación (mm) Presión (hPa) Tendencia (hPa) Humedad (%)
2019-12-11 23:00:00 7.3 8 Oeste 12 Noroeste 0 -- -- 75
2019-12-11 22:00:00 8.3 4 Oeste 14 Noroeste 0 -- -- 73
2019-12-11 21:00:00 9.2 6 Noroeste 19 Oeste 0 -- -- 70
2019-12-11 20:00:00 10 7 Noroeste 19 Oeste 0 -- -- 67
2019-12-11 19:00:00 10.8 7 Oeste 19 Noroeste 0 -- -- 67
2019-12-11 18:00:00 12.2 8 Noroeste 23 Norte 0 -- -- 64
2019-12-11 17:00:00 13.7 13 Norte 29 Norte 0 -- -- 60
2019-12-11 16:00:00 13.4 10 Norte 28 Noroeste 0 -- -- 67
2019-12-11 15:00:00 12.4 10 Noroeste 22 Oeste 0 -- -- 77
2019-12-11 14:00:00 10.9 7 Noroeste 23 Norte 0 -- -- 86
2019-12-11 13:00:00 10.6 7 Noroeste 19 Oeste 0 -- -- 99
2019-12-11 12:00:00 8.4 0 Calma 4 Sudeste 0 -- -- 100
2019-12-11 11:00:00 6.6 0 Calma 2 Noroeste 0 -- -- 100
2019-12-11 10:00:00 4.2 0 Calma 5 Sudeste 0 -- -- 100
2019-12-11 09:00:00 0.6 2 Este 4 Nordeste 0 -- -- 100
2019-12-11 08:00:00 0.2 0 Calma 6 Norte 0 -- -- 99
2019-12-11 07:00:00 0.6 0 Calma 5 Este 0 -- -- 99
2019-12-11 06:00:00 0.7 2 Nordeste 5 Nordeste 0 -- -- 98
2019-12-11 05:00:00 1.8 0 Calma 5 Este 0 -- -- 99
2019-12-11 04:00:00 1.5 0 Calma 5 Sudeste 0 -- -- 99
2019-12-11 03:00:00 1.9 0 Calma 5 Este 0 -- -- 99
2019-12-11 02:00:00 2 0 Calma 4 Este 0 -- -- 97
2019-12-11 01:00:00 3 2 Este 3 Este 0 -- -- 97
2019-12-11 00:00:00 3.9 2 Sur 3 Sur 0 -- -- 96
2019-12-10 23:00:00 5.2 3 Este 6 Sudeste 0 -- -- 96
2019-12-10 22:00:00 5.6 0 Calma 3 Sur 0 -- -- 95
2019-12-10 21:00:00 6.1 3 Nordeste 7 Norte 0 -- -- 91
2019-12-10 20:00:00 8.1 3 Norte 6 Nordeste 0 -- -- 88
2019-12-10 19:00:00 10.6 0 Calma 5 Noroeste 0 -- -- 82
2019-12-10 18:00:00 13.5 6 Oeste 12 Oeste 0 -- -- 72
2019-12-10 17:00:00 16 7 Noroeste 14 Oeste 0 -- -- 59
2019-12-10 16:00:00 17.4 8 Oeste 14 Oeste 0 -- -- 58
2019-12-10 15:00:00 17.7 9 Oeste 16 Oeste 0 -- -- 56
2019-12-10 14:00:00 17.4 5 Oeste 13 Oeste 0 -- -- 44
2019-12-10 13:00:00 15.8 9 Oeste 12 Oeste 0 -- -- 51
2019-12-10 12:00:00 13 0 Calma 3 Sudoeste 0 -- -- 56
2019-12-10 11:00:00 8.3 0 Calma 3 Oeste 0 -- -- 91
2019-12-10 10:00:00 4 0 Calma 3 Sudeste 0 -- -- 100
2019-12-10 09:00:00 0.9 3 Sudeste 7 Sudeste 0.2 -- -- 100
2019-12-10 08:00:00 0.5 3 Sudeste 6 Sudeste 0 -- -- 100
2019-12-10 07:00:00 0.9 0 Calma 4 Este 0 -- -- 100
2019-12-10 06:00:00 0.5 0 Calma 7 Sur 0 -- -- 99
2019-12-10 05:00:00 0.9 0 Calma 4 Sudeste 0 -- -- 98
2019-12-10 04:00:00 1 0 Calma 4 Este 0 -- -- 99
2019-12-10 03:00:00 1.7 0 Calma 4 Sudeste 0 -- -- 99
2019-12-10 02:00:00 2.2 0 Calma 3 Este 0 -- -- 98
2019-12-10 01:00:00 3.1 2 Este 5 Este 0 -- -- 98
2019-12-10 00:00:00 4.2 2 Sudeste 4 Sudeste 0 -- -- 98
2019-12-09 23:00:00 5.2 0 Calma 6 Sudeste 0 -- -- 97
2019-12-09 22:00:00 6.3 3 Este 5 Este 0 -- -- 96
2019-12-09 21:00:00 7.5 0 Calma 6 Este 0 -- -- 93
2019-12-09 20:00:00 9.2 0 Calma 10 Nordeste 0 -- -- 89
2019-12-09 19:00:00 11.8 2 Norte 9 Norte 0 -- -- 82
2019-12-09 18:00:00 15.7 5 Norte 10 Nordeste 0 -- -- 68
2019-12-09 17:00:00 17.4 6 Norte 13 Norte 0 -- -- 62
2019-12-09 16:00:00 17.3 8 Norte 14 Norte 0 -- -- 64
2019-12-09 15:00:00 17 5 Nordeste 20 Norte 0 -- -- 64
2019-12-09 14:00:00 16.3 10 Noroeste 17 Noroeste 0 -- -- 75
2019-12-09 13:00:00 15.4 5 Sudoeste 8 Oeste 0 -- -- 81
2019-12-09 12:00:00 13.6 4 Noroeste 14 Nordeste 0 -- -- 90
2019-12-09 11:00:00 13.1 6 Nordeste 10 Nordeste 0 -- -- 99
2019-12-09 10:00:00 12 0 Calma 3 Este 0 -- -- 100
2019-12-09 09:00:00 11.1 0 Calma 4 Sudeste 0 -- -- 100
2019-12-09 08:00:00 12.1 3 Este 5 Sudeste 0 -- -- 100
2019-12-09 07:00:00 12 0 Calma 3 Norte 0 -- -- 100
2019-12-09 06:00:00 12.1 0 Calma 3 Sudeste 0.2 -- -- 100
2019-12-09 05:00:00 11.9 0 Calma 4 Nordeste 0 -- -- 100
2019-12-09 04:00:00 11.9 2 Sur 3 Sur 0 -- -- 100
2019-12-09 03:00:00 11.9 0 Calma 0 Calma 0.2 -- -- 99
2019-12-09 02:00:00 11.7 0 Calma 3 Nordeste 0 -- -- 99
2019-12-09 01:00:00 11.7 0 Calma 4 Sur 0 -- -- 98
2019-12-09 00:00:00 11.6 0 Calma 2 Sudeste 0 -- -- 97
2019-12-08 23:00:00 11.3 0 Calma 4 Oeste 0 -- -- 97
2019-12-08 22:00:00 11.4 0 Calma 4 Oeste 0 -- -- 96
2019-12-08 21:00:00 12.2 0 Calma 4 Noroeste 0 -- -- 93
2019-12-08 20:00:00 13.1 0 Calma 3 Sudoeste 0 -- -- 91
2019-12-08 19:00:00 14 0 Calma 10 Noroeste 0 -- -- 86
2019-12-08 18:00:00 14.5 4 Noroeste 9 Noroeste 0 -- -- 83
2019-12-08 17:00:00 15.5 0 Calma 12 Oeste 0 -- -- 79
2019-12-08 16:00:00 15.6 6 Noroeste 18 Noroeste 0 -- -- 78
2019-12-08 15:00:00 15.6 13 Noroeste 23 Noroeste 0 -- -- 75
2019-12-08 14:00:00 16.2 7 Noroeste 18 Noroeste 0 -- -- 72
2019-12-08 13:00:00 15.1 6 Oeste 11 Noroeste 0 -- -- 72
2019-12-08 12:00:00 14.3 3 Oeste 7 Sudoeste 0 -- -- 77
2019-12-08 11:00:00 9.7 2 Sudoeste 4 Sudoeste 0 -- -- 97
2019-12-08 10:00:00 6.5 3 Este 6 Este 0 -- -- 100
2019-12-08 09:00:00 2 3 Este 4 Este 0 -- -- 100
2019-12-08 08:00:00 1.8 2 Sur 4 Este 0 -- -- 100
2019-12-08 07:00:00 1.5 4 Este 6 Este 0 -- -- 100
2019-12-08 06:00:00 1.5 2 Este 5 Sudeste 0 -- -- 99
2019-12-08 05:00:00 2 2 Nordeste 8 Sudeste 0 -- -- 99
2019-12-08 04:00:00 2 0 Calma 3 Sudoeste 0 -- -- 100
2019-12-08 03:00:00 2.8 2 Este 8 Nordeste 0 -- -- 99
2019-12-08 02:00:00 3.5 4 Sur 8 Sudeste 0 -- -- 99
2019-12-08 01:00:00 3.7 3 Este 6 Sudeste 0 -- -- 99
2019-12-08 00:00:00 4.4 0 Calma 4 Nordeste 0 -- -- 97
2019-12-07 23:00:00 5.1 0 Calma 5 Sudeste 0 -- -- 95
2019-12-07 22:00:00 6.3 3 Sudeste 5 Sudeste 0 -- -- 94
2019-12-07 21:00:00 7.9 3 Sudeste 7 Sudeste 0 -- -- 91
2019-12-07 20:00:00 9.5 0 Calma 5 Norte 0 -- -- 85
2019-12-07 19:00:00 12.2 2 Oeste 9 Noroeste 0 -- -- 77
2019-12-07 18:00:00 15.1 6 Noroeste 15 Noroeste 0 -- -- 63
2019-12-07 17:00:00 17.4 5 Noroeste 11 Noroeste 0 -- -- 56
2019-12-07 16:00:00 17.6 7 Oeste 14 Norte 0 -- -- 57
2019-12-07 15:00:00 17.2 6 Noroeste 32 Noroeste 0 -- -- 58
2019-12-07 14:00:00 16.9 13 Oeste 20 Oeste 0 -- -- 61
2019-12-07 13:00:00 16.2 12 Oeste 22 Oeste 0 -- -- 65
2019-12-07 12:00:00 14.3 7 Oeste 12 Sudoeste 0 -- -- 69
2019-12-07 11:00:00 10.8 0 Calma 4 Sur 0 -- -- 85
2019-12-07 10:00:00 6.9 2 Este 7 Sudeste 0 -- -- 100
2019-12-07 09:00:00 3.4 2 Sudeste 8 Sudeste 0 -- -- 100
2019-12-07 08:00:00 3.1 3 Sudeste 9 Sudeste 0 -- -- 99
2019-12-07 07:00:00 3.4 4 Este 9 Sudeste 0 -- -- 99
2019-12-07 06:00:00 4.2 4 Este 8 Sudeste 0 -- -- 99
2019-12-07 05:00:00 4.8 5 Sudeste 8 Sudeste 0 -- -- 98
2019-12-07 04:00:00 5.2 4 Este 6 Sudeste 0 -- -- 99
2019-12-07 03:00:00 5.5 2 Nordeste 7 Norte 0 -- -- 99
2019-12-07 02:00:00 4.8 2 Este 6 Sur 0 -- -- 97
2019-12-07 01:00:00 4.9 0 Calma 9 Nordeste 0 -- -- 96
2019-12-07 00:00:00 5.8 0 Calma 8 Nordeste 0 -- -- 95
2019-12-06 23:00:00 6.4 0 Calma 7 Nordeste 0 -- -- 95
2019-12-06 22:00:00 7.5 3 Este 10 Nordeste 0 -- -- 92
2019-12-06 21:00:00 9 0 Calma 9 Este 0 -- -- 85
2019-12-06 20:00:00 11.6 4 Sudeste 9 Este 0 -- -- 75
2019-12-06 19:00:00 13.2 2 Norte 8 Sur 0 -- -- 69
2019-12-06 18:00:00 16 5 Nordeste 19 Norte 0 -- -- 60
2019-12-06 17:00:00 18 11 Norte 22 Norte 0 -- -- 53
2019-12-06 16:00:00 18.6 10 Nordeste 22 Nordeste 0 -- -- 45
2019-12-06 15:00:00 19 9 Norte 18 Nordeste 0 -- -- 48
2019-12-06 14:00:00 18.5 12 Norte 20 Norte 0 -- -- 50
2019-12-06 13:00:00 17.9 4 Oeste 13 Este 0 -- -- 50
2019-12-06 12:00:00 16.9 5 Sudeste 13 Sudeste 0 -- -- 55
2019-12-06 11:00:00 13.8 2 Nordeste 12 Este 0 -- -- 67
2019-12-06 10:00:00 8.9 0 Calma 12 Este 0 -- -- 87
2019-12-06 09:00:00 6.7 3 Norte 7 Nordeste 0 -- -- 93
2019-12-06 08:00:00 6.4 0 Calma 9 Sudeste 0 -- -- 92
2019-12-06 07:00:00 6.7 5 Este 10 Nordeste 0 -- -- 96
2019-12-06 06:00:00 3.9 3 Sudeste 8 Nordeste 0 -- -- 96
2019-12-06 05:00:00 4.9 0 Calma 6 Oeste 0 -- -- 97
2019-12-06 04:00:00 5.7 0 Calma 8 Nordeste 0 -- -- 94
2019-12-06 03:00:00 6.7 4 Nordeste 10 Sudeste 0 -- -- 93
2019-12-06 02:00:00 6.1 2 Sur 11 Este 0 -- -- 91
2019-12-06 01:00:00 6.1 5 Nordeste 8 Nordeste 0 -- -- 95
2019-12-06 00:00:00 6.8 0 Calma 6 Sudoeste 0 -- -- 91
2019-12-05 23:00:00 8.2 0 Calma 8 Sur 0 -- -- 84
2019-12-05 22:00:00 11.6 4 Sur 27 Este 0 -- -- 72
2019-12-05 21:00:00 11.1 5 Nordeste 18 Nordeste 0 -- -- 73
2019-12-05 20:00:00 12.5 9 Nordeste 30 Este 0 -- -- 68
2019-12-05 19:00:00 13.4 19 Nordeste 30 Este 0 -- -- 64
2019-12-05 18:00:00 14.1 12 Este 31 Nordeste 0 -- -- 63
2019-12-05 17:00:00 15.4 17 Este 32 Nordeste 0 -- -- 58
2019-12-05 16:00:00 15.9 17 Nordeste 34 Este 0 -- -- 56
2019-12-05 15:00:00 15.8 15 Este 32 Este 0 -- -- 59
2019-12-05 14:00:00 15.7 10 Nordeste 31 Este 0 -- -- 61
2019-12-05 13:00:00 15.2 15 Nordeste 26 Este 0 -- -- 63
2019-12-05 12:00:00 14 9 Este 26 Nordeste 0 -- -- 68
2019-12-05 11:00:00 12.7 15 Este 27 Este 0 -- -- 72
2019-12-05 10:00:00 9.8 3 Oeste 18 Este 0 -- -- 95
2019-12-05 09:00:00 3.2 3 Nordeste 8 Sudeste 0 -- -- 100
2019-12-05 08:00:00 3.1 0 Calma 8 Este 0 -- -- 100
2019-12-05 07:00:00 3.4 0 Calma 5 Nordeste 0 -- -- 99
2019-12-05 06:00:00 3.9 3 Sudeste 5 Sur 0 -- -- 99
2019-12-05 05:00:00 5.4 4 Este 7 Nordeste 0 -- -- 100
2019-12-05 04:00:00 6.4 0 Calma 5 Nordeste 0 -- -- 100
2019-12-05 03:00:00 6.1 2 Norte 6 Sur 0 -- -- 100
2019-12-05 02:00:00 5.6 3 Nordeste 5 Este 0 -- -- 100
2019-12-05 01:00:00 5.1 0 Calma 4 Sur 0 -- -- 100
2019-12-05 00:00:00 4.5 4 Sudeste 6 Sudeste 0 -- -- 100
2019-12-04 23:00:00 3.5 3 Este 4 Este 0 -- -- 99
2019-12-04 22:00:00 3.9 2 Nordeste 5 Sudeste 0 -- -- 96
2019-12-04 21:00:00 5.1 0 Calma 3 Este 0 -- -- 95
2019-12-04 20:00:00 6.6 0 Calma 8 Nordeste 0 -- -- 93
2019-12-04 19:00:00 8.1 0 Calma 12 Norte 0 -- -- 88
2019-12-04 18:00:00 11.4 3 Norte 13 Norte 0 -- -- 76
2019-12-04 17:00:00 12.9 8 Norte 16 Norte 0 -- -- 69
2019-12-04 16:00:00 13.5 6 Norte 16 Noroeste 0 -- -- 70
2019-12-04 15:00:00 12.1 6 Noroeste 17 Oeste 0 -- -- 76
2019-12-04 14:00:00 12.3 11 Oeste 19 Oeste 0 -- -- 78
2019-12-04 13:00:00 11.4 12 Oeste 20 Oeste 0 -- -- 82
2019-12-04 12:00:00 10.1 9 Oeste 15 Oeste 0 -- -- 86
2019-12-04 11:00:00 8.1 3 Noroeste 5 Noroeste 0 -- -- 99
2019-12-04 10:00:00 5.4 0 Calma 5 Este 0 -- -- 100
2019-12-04 09:00:00 2.5 3 Este 5 Este 0 -- -- 100
2019-12-04 08:00:00 2.6 3 Sudeste 7 Este 0 -- -- 100
2019-12-04 07:00:00 3.1 0 Calma 6 Sur 0 -- -- 100
2019-12-04 06:00:00 2.4 3 Oeste 4 Oeste 0 -- -- 100
2019-12-04 05:00:00 3 2 Este 4 Este 0 -- -- 98
2019-12-04 04:00:00 3.5 3 Sudeste 5 Sudeste 0 -- -- 98
2019-12-04 03:00:00 4.4 2 Sur 6 Este 0 -- -- 99
2019-12-04 02:00:00 3.7 0 Calma 6 Sudeste 0 -- -- 99
2019-12-04 01:00:00 4 0 Calma 5 Nordeste 0 -- -- 98
2019-12-04 00:00:00 4.3 2 Sudoeste 6 Sur 0 -- -- 98
2019-12-03 23:00:00 5.1 0 Calma 4 Sudeste 0 -- -- 96
2019-12-03 22:00:00 6.3 3 Este 6 Este 0 -- -- 95
2019-12-03 21:00:00 7.7 3 Este 8 Norte 0 -- -- 91
2019-12-03 20:00:00 10.1 0 Calma 18 Nordeste 0 -- -- 82
2019-12-03 19:00:00 11.9 6 Norte 18 Nordeste 0 -- -- 75
2019-12-03 18:00:00 13.6 9 Nordeste 21 Este 0 -- -- 67
2019-12-03 17:00:00 14.9 10 Nordeste 23 Este 0 -- -- 64
2019-12-03 16:00:00 15.4 12 Nordeste 24 Nordeste 0 -- -- 62
2019-12-03 15:00:00 15.4 10 Nordeste 27 Nordeste 0 -- -- 62
2019-12-03 14:00:00 14.5 14 Nordeste 26 Nordeste 0 -- -- 66
2019-12-03 13:00:00 13.8 11 Norte 19 Norte 0 -- -- 67
2019-12-03 12:00:00 12.6 12 Nordeste 29 Nordeste 0 -- -- 70
2019-12-03 11:00:00 11.2 16 Este 26 Este 0 -- -- 72
2019-12-03 10:00:00 10 4 Nordeste 14 Sudeste 0 -- -- 79
2019-12-03 09:00:00 7 4 Nordeste 13 Este 0 -- -- 91
2019-12-03 08:00:00 8 3 Nordeste 15 Este 0 -- -- 86
2019-12-03 07:00:00 8.9 9 Este 15 Este 0 -- -- 83
2019-12-03 06:00:00 9.9 5 Este 24 Este 0 -- -- 79
2019-12-03 05:00:00 9 5 Sudeste 18 Este 0 -- -- 84
2019-12-03 04:00:00 8.6 6 Nordeste 14 Este 0 -- -- 89
2019-12-03 03:00:00 8 2 Nordeste 8 Este 0 -- -- 88
2019-12-03 02:00:00 9.4 5 Este 11 Sudeste 0 -- -- 83
2019-12-03 01:00:00 10.9 12 Este 30 Este 0 -- -- 78
2019-12-03 00:00:00 10.8 9 Este 30 Este 0 -- -- 79
2019-12-02 23:00:00 10.8 10 Este 30 Este 0 -- -- 80
2019-12-02 22:00:00 11.3 18 Nordeste 39 Este 0 -- -- 77
2019-12-02 21:00:00 11.4 18 Nordeste 34 Nordeste 0 -- -- 76
2019-12-02 20:00:00 11.6 12 Nordeste 32 Nordeste 0 -- -- 75
2019-12-02 19:00:00 12.1 9 Nordeste 25 Norte 0 -- -- 72
2019-12-02 18:00:00 13.1 12 Nordeste 31 Nordeste 0 -- -- 69
2019-12-02 17:00:00 13.8 17 Nordeste 44 Nordeste 0 -- -- 65
2019-12-02 16:00:00 13.9 16 Nordeste 36 Nordeste 0 -- -- 67
2019-12-02 15:00:00 14.1 18 Nordeste 30 Nordeste 0 -- -- 72
2019-12-02 14:00:00 13.9 15 Este 30 Este 0 -- -- 70
2019-12-02 13:00:00 12.9 15 Este 33 Este 0 -- -- 74
2019-12-02 12:00:00 12.3 22 Nordeste 39 Este 0 -- -- 77
2019-12-02 11:00:00 10.9 11 Este 37 Este 0 -- -- 83
2019-12-02 10:00:00 10.3 16 Nordeste 34 Nordeste 0 -- -- 85
2019-12-02 09:00:00 9.7 10 Nordeste 22 Nordeste 0 -- -- 88
2019-12-02 08:00:00 9.5 7 Norte 26 Nordeste 0 -- -- 89
2019-12-02 07:00:00 9.6 7 Norte 20 Norte 0 -- -- 90
2019-12-02 06:00:00 9.4 5 Norte 19 Norte 0 -- -- 90
2019-12-02 05:00:00 9.2 9 Norte 23 Norte 0 -- -- 91
2019-12-02 04:00:00 9.1 7 Norte 21 Nordeste 0 -- -- 92
2019-12-02 03:00:00 9.4 11 Norte 25 Norte 0 -- -- 90
2019-12-02 02:00:00 9.8 12 Norte 26 Norte 0 -- -- 91
2019-12-02 01:00:00 10.4 7 Norte 19 Norte 1 -- -- 96
2019-12-02 00:00:00 10.5 4 Norte 8 Norte 0.2 -- -- 99
2019-12-01 23:00:00 10.4 0 Calma 6 Sudoeste 0.2 -- -- 99
2019-12-01 22:00:00 10.4 0 Calma 12 Sudoeste 1 -- -- 99
2019-12-01 21:00:00 10.4 7 Oeste 15 Oeste 1.2 -- -- 97
2019-12-01 20:00:00 10.9 7 Oeste 13 Oeste 0 -- -- 94
2019-12-01 19:00:00 11.1 6 Oeste 15 Oeste 0.2 -- -- 97
2019-12-01 18:00:00 11.3 6 Oeste 11 Oeste 0.2 -- -- 95
2019-12-01 17:00:00 11.9 8 Oeste 23 Oeste 0.6 -- -- 92
2019-12-01 16:00:00 13.4 10 Oeste 21 Oeste 1 -- -- 83
2019-12-01 15:00:00 13 6 Oeste 15 Oeste 1.8 -- -- 89
2019-12-01 14:00:00 11.8 8 Oeste 22 Oeste 5.4 -- -- 92
2019-12-01 13:00:00 12.2 8 Oeste 24 Oeste 0 -- -- 93
2019-12-01 12:00:00 12.4 9 Oeste 23 Sudoeste 0.2 -- -- 97
2019-12-01 11:00:00 11.4 8 Oeste 17 Oeste 0 -- -- 98
2019-12-01 10:00:00 10.8 0 Calma 4 Oeste 0 -- -- 99
2019-12-01 09:00:00 10.6 3 Noroeste 9 Sudoeste 0 -- -- 99
2019-12-01 08:00:00 10.8 5 Oeste 17 Oeste 0.6 -- -- 100
2019-12-01 07:00:00 10.4 0 Calma 4 Sur 0 -- -- 100
2019-12-01 06:00:00 10.3 3 Sudoeste 13 Oeste 0 -- -- 100
2019-12-01 05:00:00 11 3 Oeste 9 Oeste 0 -- -- 100
2019-12-01 04:00:00 10.9 0 Calma 5 Oeste 0 -- -- 100
2019-12-01 03:00:00 10.9 3 Oeste 7 Oeste 0 -- -- 100
2019-12-01 02:00:00 11 3 Noroeste 6 Oeste 0 -- -- 100
2019-12-01 01:00:00 11.4 5 Oeste 13 Sudoeste 0 -- -- 100
2019-12-01 00:00:00 11.4 4 Oeste 7 Oeste 0 -- -- 99
2019-11-30 23:00:00 11.6 0 Calma 4 Oeste 0 -- -- 98
2019-11-30 22:00:00 12.5 0 Calma 13 Sudoeste 0.2 -- -- 98
2019-11-30 21:00:00 13 12 Oeste 21 Oeste 1.8 -- -- 97
2019-11-30 20:00:00 13.7 3 Este 5 Nordeste 0 -- -- 98
2019-11-30 19:00:00 13.9 3 Oeste 27 Oeste 0.2 -- -- 95
2019-11-30 18:00:00 15.8 12 Sudoeste 21 Sudoeste 0 -- -- 80
2019-11-30 17:00:00 16.1 4 Sudoeste 17 Sudoeste 0 -- -- 79
2019-11-30 16:00:00 16.2 6 Oeste 15 Oeste 0 -- -- 78
2019-11-30 15:00:00 15.8 5 Oeste 13 Oeste 0 -- -- 82
2019-11-30 14:00:00 15.7 3 Noroeste 8 Oeste 0 -- -- 81
2019-11-30 13:00:00 14.2 4 Nordeste 8 Este 0 -- -- 93
2019-11-30 12:00:00 12.6 2 Noroeste 4 Sur 0 -- -- 99
2019-11-30 11:00:00 11.3 2 Sudeste 5 Este 0 -- -- 100
2019-11-30 10:00:00 10 0 Calma 5 Oeste 0 -- -- 100
2019-11-30 09:00:00 5.9 2 Nordeste 4 Sudeste 0 -- -- 100
2019-11-30 08:00:00 5.9 2 Este 5 Sudeste 0 -- -- 100
2019-11-30 07:00:00 6.1 0 Calma 5 Sudeste 0 -- -- 100
2019-11-30 06:00:00 5.8 4 Este 6 Sur 0 -- -- 100
2019-11-30 05:00:00 6.4 0 Calma 6 Este 0 -- -- 99
2019-11-30 04:00:00 6.9 0 Calma 4 Sudeste 0 -- -- 99
2019-11-30 03:00:00 7.5 0 Calma 4 Nordeste 0 -- -- 99
2019-11-30 02:00:00 7.3 0 Calma 6 Sudeste 0 -- -- 99
2019-11-30 01:00:00 7.7 2 Sudeste 4 Sudeste 0 -- -- 98
2019-11-30 00:00:00 8.1 3 Sudeste 7 Este 0 -- -- 97
2019-11-29 23:00:00 8.8 2 Este 5 Este 0 -- -- 97
2019-11-29 22:00:00 10 3 Nordeste 5 Nordeste 0 -- -- 95
2019-11-29 21:00:00 11.1 0 Calma 3 Nordeste 0 -- -- 94
2019-11-29 20:00:00 12 3 Este 7 Nordeste 0 -- -- 90
2019-11-29 19:00:00 13.6 2 Nordeste 8 Nordeste 0 -- -- 85
2019-11-29 18:00:00 16 3 Norte 9 Norte 0 -- -- 75
2019-11-29 17:00:00 17.2 5 Norte 13 Oeste 0 -- -- 69
2019-11-29 16:00:00 18 7 Oeste 13 Oeste 0 -- -- 66
2019-11-29 15:00:00 17.4 7 Oeste 14 Oeste 0 -- -- 66
2019-11-29 14:00:00 17.6 9 Oeste 19 Sudoeste 0 -- -- 68
2019-11-29 13:00:00 16.4 7 Oeste 14 Oeste 0 -- -- 79
2019-11-29 12:00:00 15.4 3 Oeste 6 Oeste 0 -- -- 84
2019-11-29 11:00:00 14.1 0 Calma 3 Sur 0 -- -- 90
2019-11-29 10:00:00 12.6 2 Sudeste 4 Sudeste 0 -- -- 96
2019-11-29 09:00:00 10.2 2 Nordeste 4 Este 0 -- -- 100
2019-11-29 08:00:00 10.2 2 Este 5 Este 0 -- -- 100
2019-11-29 07:00:00 10 4 Sur 5 Sur 0 -- -- 100
2019-11-29 06:00:00 10 3 Sudeste 6 Este 0 -- -- 100
2019-11-29 05:00:00 9.4 4 Sudeste 6 Sudeste 0 -- -- 100
2019-11-29 04:00:00 9.6 0 Calma 4 Este 0 -- -- 99
2019-11-29 03:00:00 9.8 0 Calma 4 Sudeste 0 -- -- 99
2019-11-29 02:00:00 9.7 0 Calma 7 Sur 0 -- -- 100
2019-11-29 01:00:00 8.8 2 Sur 6 Este 0 -- -- 100
2019-11-29 00:00:00 8.6 4 Este 5 Este 0 -- -- 99
2019-11-28 23:00:00 8.7 3 Este 4 Este 0 -- -- 97
2019-11-28 22:00:00 9.2 0 Calma 5 Nordeste 0 -- -- 95
2019-11-28 21:00:00 10.6 2 Este 4 Norte 0 -- -- 93
2019-11-28 20:00:00 11.8 0 Calma 6 Nordeste 0 -- -- 90
2019-11-28 19:00:00 13.8 3 Nordeste 4 Sudoeste 0 -- -- 84
2019-11-28 18:00:00 16 2 Este 6 Sudoeste 0 -- -- 75
2019-11-28 17:00:00 16.7 5 Oeste 12 Sudoeste 0 -- -- 69
2019-11-28 16:00:00 17.1 7 Noroeste 14 Oeste 0 -- -- 69
2019-11-28 15:00:00 16.7 8 Oeste 23 Oeste 0 -- -- 71
2019-11-28 14:00:00 16.8 12 Oeste 21 Sudoeste 0 -- -- 72
2019-11-28 13:00:00 16.5 10 Oeste 21 Oeste 0 -- -- 74
2019-11-28 12:00:00 15.5 5 Noroeste 12 Noroeste 0 -- -- 81
2019-11-28 11:00:00 14 0 Calma 7 Este 0 -- -- 91
2019-11-28 10:00:00 11.7 3 Sudeste 6 Sudeste 0 -- -- 100
2019-11-28 09:00:00 10.5 2 Este 4 Sudeste 0 -- -- 100
2019-11-28 08:00:00 10.2 3 Este 6 Este 0 -- -- 100
2019-11-28 07:00:00 9.9 2 Sur 3 Sur 0 -- -- 100
2019-11-28 06:00:00 9.6 0 Calma 6 Nordeste 0 -- -- 100
2019-11-28 05:00:00 9.4 0 Calma 3 Nordeste 0 -- -- 99
2019-11-28 04:00:00 9.4 0 Calma 5 Sur 0 -- -- 99
2019-11-28 03:00:00 10 3 Sur 5 Sur 0 -- -- 100
2019-11-28 02:00:00 9.5 0 Calma 6 Este 0 -- -- 99
2019-11-28 01:00:00 9.6 2 Este 4 Sudeste 0 -- -- 99
2019-11-28 00:00:00 9.1 4 Nordeste 5 Nordeste 0 -- -- 97
2019-11-27 23:00:00 10.6 0 Calma 4 Sudeste 0 -- -- 96
2019-11-27 22:00:00 11.4 0 Calma 5 Nordeste 0 -- -- 96
2019-11-27 21:00:00 11.4 0 Calma 8 Este 0 -- -- 95
2019-11-27 20:00:00 11.7 3 Sur 5 Norte 0 -- -- 93
2019-11-27 19:00:00 13 0 Calma 5 Oeste 0 -- -- 85
2019-11-27 18:00:00 15 5 Oeste 16 Oeste 0 -- -- 74
2019-11-27 17:00:00 16.2 6 Oeste 12 Oeste 0 -- -- 68
2019-11-27 16:00:00 16.2 8 Oeste 23 Noroeste 0 -- -- 68
2019-11-27 15:00:00 16.4 9 Oeste 21 Oeste 0 -- -- 73
2019-11-27 14:00:00 15.9 10 Oeste 18 Oeste 0 -- -- 80
2019-11-27 06:00:00 -- -- -- -- -- -- -- -- --
2019-11-27 05:00:00 12.8 6 Oeste 16 Oeste 0 -- -- 95
2019-11-27 04:00:00 13.7 7 Oeste 13 Sudoeste 0 -- -- 98
2019-11-27 03:00:00 13.8 3 Oeste 15 Oeste 0 -- -- 97
2019-11-27 02:00:00 14.1 9 Oeste 23 Oeste 0 -- -- 97
2019-11-27 01:00:00 14 6 Oeste 14 Sudoeste 0 -- -- 97
2019-11-27 00:00:00 13.9 3 Oeste 19 Oeste 0 -- -- 96
2019-11-26 23:00:00 14.4 7 Oeste 14 Oeste 0 -- -- 98
2019-11-26 22:00:00 14.4 5 Sudoeste 15 Oeste 0.2 -- -- 97
2019-11-26 21:00:00 14.8 7 Oeste 12 Oeste 3.8 -- -- 98
2019-11-26 20:00:00 15.1 4 Noroeste 23 Sudoeste 1.4 -- -- 95
2019-11-26 19:00:00 17.1 11 Sudoeste 24 Sudoeste 0.2 -- -- 80
2019-11-26 18:00:00 17.8 10 Sudoeste 23 Sudoeste 0 -- -- 73
2019-11-26 17:00:00 18.6 16 Sudoeste 30 Sur 0 -- -- 72
2019-11-26 16:00:00 19.3 14 Sudoeste 32 Sudoeste 0 -- -- 71
2019-11-26 15:00:00 20 13 Sudoeste 26 Sudoeste 0 -- -- 70
2019-11-26 14:00:00 18.4 14 Sudoeste 24 Sudoeste 0 -- -- 79
2019-11-26 13:00:00 17.8 9 Sudoeste 22 Oeste 0 -- -- 83
2019-11-26 12:00:00 17.6 17 Sudoeste 24 Sudoeste 0 -- -- 85
2019-11-26 11:00:00 15.7 6 Sudoeste 16 Sudoeste 0 -- -- 97
2019-11-26 10:00:00 14.8 6 Sur 13 Sudoeste 0 -- -- 100
2019-11-26 09:00:00 13.7 0 Calma 4 Norte 0.2 -- -- 100
2019-11-26 08:00:00 13.3 2 Norte 3 Nordeste 0.2 -- -- 100
2019-11-26 07:00:00 13 0 Calma 4 Nordeste 0.6 -- -- 100
2019-11-26 06:00:00 12.7 0 Calma 3 Sudoeste 0 -- -- 100
2019-11-26 05:00:00 12.4 0 Calma 4 Sudoeste 0 -- -- 100
2019-11-26 04:00:00 12.1 0 Calma 3 Este 0.2 -- -- 100
2019-11-26 03:00:00 11.9 2 Este 5 Sudeste 0 -- -- 100
2019-11-26 02:00:00 11.4 0 Calma 5 Sur 0 -- -- 100
2019-11-26 01:00:00 11.1 2 Este 5 Nordeste 0 -- -- 99
2019-11-26 00:00:00 11.5 0 Calma 6 Este 0 -- -- 98
2019-11-25 23:00:00 11.9 0 Calma 4 Sudeste 0 -- -- 96
2019-11-25 22:00:00 13.1 0 Calma 7 Sudoeste 0 -- -- 93
2019-11-25 21:00:00 14.2 5 Oeste 9 Oeste 0 -- -- 89
2019-11-25 20:00:00 14.7 6 Oeste 11 Sudoeste 0 -- -- 88
2019-11-25 19:00:00 15.2 0 Calma 5 Oeste 0 -- -- 93
2019-11-25 18:00:00 17 3 Oeste 18 Oeste 0 -- -- 85
2019-11-25 17:00:00 18 10 Oeste 17 Oeste 0 -- -- 81
2019-11-25 16:00:00 17.4 7 Oeste 16 Oeste 0 -- -- 86
2019-11-25 15:00:00 17.1 7 Oeste 18 Sudoeste 0 -- -- 90
2019-11-25 14:00:00 16.9 5 Oeste 15 Oeste 0 -- -- 95
2019-11-25 13:00:00 15.6 6 Oeste 13 Oeste 0 -- -- 99
2019-11-25 12:00:00 15.1 5 Noroeste 10 Noroeste 0.2 -- -- 100
2019-11-25 11:00:00 14.4 5 Oeste 10 Noroeste 0.8 -- -- 100
2019-11-25 10:00:00 13.9 2 Noroeste 4 Nordeste 0.6 -- -- 100
2019-11-25 09:00:00 13.1 0 Calma 4 Este 1.6 -- -- 100
2019-11-25 08:00:00 13 2 Sudeste 6 Este 0.2 -- -- 100
2019-11-25 07:00:00 12.8 3 Este 6 Este 0 -- -- 100
2019-11-25 06:00:00 12.5 0 Calma 5 Este 0.2 -- -- 100
2019-11-25 05:00:00 12.4 2 Nordeste 5 Este 0 -- -- 100
2019-11-25 04:00:00 11.9 0 Calma 4 Este 0 -- -- 100
2019-11-25 03:00:00 11.7 0 Calma 4 Noroeste 0.2 -- -- 99
2019-11-25 02:00:00 11.7 0 Calma 4 Este 0.2 -- -- 99
2019-11-25 01:00:00 11.6 2 Nordeste 4 Nordeste 1 -- -- 98
2019-11-25 00:00:00 11.5 0 Calma 6 Sudoeste 0 -- -- 96
2019-11-24 23:00:00 11 0 Calma 3 Noroeste 0 -- -- 95
2019-11-24 22:00:00 10.7 0 Calma 3 Sudoeste 0 -- -- 95
2019-11-24 21:00:00 10.6 0 Calma 7 Nordeste 0 -- -- 93
2019-11-24 20:00:00 11.2 2 Norte 5 Norte 0 -- -- 89
2019-11-24 19:00:00 12.8 0 Calma 4 Este 0 -- -- 83
2019-11-24 18:00:00 13.9 0 Calma 7 Oeste 0 -- -- 80
2019-11-24 17:00:00 14.4 4 Oeste 10 Sudoeste 0 -- -- 72
2019-11-24 16:00:00 14.5 7 Oeste 15 Oeste 0 -- -- 71
2019-11-24 15:00:00 15.2 10 Sudoeste 18 Oeste 0 -- -- 68
2019-11-24 14:00:00 15.1 10 Oeste 20 Oeste 0 -- -- 68
2019-11-24 13:00:00 14.6 8 Sudoeste 21 Oeste 0 -- -- 74
2019-11-24 12:00:00 12.6 5 Sudoeste 12 Sudoeste 0 -- -- 82
2019-11-24 11:00:00 9.4 0 Calma 3 Sur 0 -- -- 99
2019-11-24 10:00:00 5.9 0 Calma 2 Sur 0 -- -- 100
2019-11-24 09:00:00 2.8 0 Calma 5 Este 0 -- -- 100
2019-11-24 08:00:00 1.9 3 Este 5 Sur 0 -- -- 100
2019-11-24 07:00:00 1.9 0 Calma 4 Sudeste 0 -- -- 100
2019-11-24 06:00:00 2.1 2 Este 4 Este 0 -- -- 99
2019-11-24 05:00:00 2 0 Calma 4 Sudeste 0 -- -- 98
2019-11-24 04:00:00 2.4 0 Calma 2 Sur 0 -- -- 98
2019-11-24 03:00:00 2.9 2 Sur 6 Sur 0 -- -- 98
2019-11-24 02:00:00 3.8 4 Sudeste 6 Sudeste 0 -- -- 97
2019-11-24 01:00:00 4.6 0 Calma 10 Este 0 -- -- 96
2019-11-24 00:00:00 5.5 2 Este 9 Sudeste 0 -- -- 94
2019-11-23 23:00:00 7.4 0 Calma 11 Oeste 0 -- -- 89
2019-11-23 22:00:00 8.4 4 Norte 14 Oeste 0 -- -- 86
2019-11-23 21:00:00 9.2 2 Norte 22 Noroeste 0 -- -- 83
2019-11-23 20:00:00 11.3 14 Noroeste 26 Noroeste 0 -- -- 71
2019-11-23 19:00:00 11.6 7 Noroeste 24 Oeste 0 -- -- 70
2019-11-23 18:00:00 12.9 12 Oeste 33 Noroeste 0 -- -- 66
2019-11-23 17:00:00 14.4 10 Noroeste 31 Noroeste 0 -- -- 63
2019-11-23 16:00:00 14 15 Oeste 35 Oeste 0 -- -- 61
2019-11-23 15:00:00 14.2 15 Noroeste 33 Noroeste 0 -- -- 62
2019-11-23 14:00:00 13.5 22 Noroeste 36 Oeste 0 -- -- 65
2019-11-23 13:00:00 12.7 15 Noroeste 28 Noroeste 0 -- -- 70
2019-11-23 12:00:00 12.3 15 Noroeste 32 Oeste 0 -- -- 74
2019-11-23 11:00:00 11.6 15 Noroeste 38 Oeste 0 -- -- 82
2019-11-23 10:00:00 11 17 Oeste 29 Oeste 0 -- -- 86
2019-11-23 09:00:00 9.9 15 Oeste 32 Oeste 0 -- -- 89
2019-11-23 08:00:00 10.4 17 Oeste 28 Oeste 0 -- -- 86
2019-11-23 07:00:00 10.3 10 Oeste 22 Oeste 0 -- -- 91
2019-11-23 06:00:00 10.5 11 Oeste 24 Oeste 0 -- -- 91
2019-11-23 05:00:00 10.6 13 Oeste 36 Noroeste 0 -- -- 90
2019-11-23 04:00:00 10.9 18 Oeste 34 Oeste 0.4 -- -- 91
2019-11-23 03:00:00 12.1 17 Oeste 33 Oeste 0 -- -- 84
2019-11-23 02:00:00 12.4 21 Oeste 38 Oeste 0 -- -- 82
2019-11-23 01:00:00 12.4 14 Oeste 27 Sudoeste 0 -- -- 84
2019-11-23 00:00:00 11.7 9 Oeste 24 Oeste 0 -- -- 87
2019-11-22 23:00:00 11.9 14 Oeste 26 Oeste 0 -- -- 85
2019-11-22 22:00:00 12.4 15 Oeste 42 Oeste 0 -- -- 83
2019-11-22 21:00:00 13.7 20 Oeste 36 Oeste 0 -- -- 84
2019-11-22 20:00:00 13.9 17 Oeste 35 Oeste 0 -- -- 81
2019-11-22 19:00:00 13.2 10 Oeste 42 Oeste 0 -- -- 82
2019-11-22 18:00:00 14.5 22 Oeste 39 Oeste 0 -- -- 79
2019-11-22 17:00:00 14.5 27 Oeste 48 Oeste 0.2 -- -- 86
2019-11-22 16:00:00 14.7 18 Oeste 59 Noroeste 9.8 -- -- 97
2019-11-22 15:00:00 16.3 30 Sudoeste 52 Sudoeste 3.2 -- -- 97
2019-11-22 14:00:00 15.6 21 Sudoeste 47 Sudoeste 7.2 -- -- 97
2019-11-22 13:00:00 15.3 21 Sudoeste 36 Sudoeste 1 -- -- 95
2019-11-22 12:00:00 14.7 14 Sudoeste 31 Sur 1.2 -- -- 96
2019-11-22 11:00:00 13.9 8 Sudoeste 32 Sur 4 -- -- 96
2019-11-22 10:00:00 13.6 15 Sur 33 Sur 0.4 -- -- 97
2019-11-22 09:00:00 13.4 18 Sur 32 Sur 0 -- -- 97
2019-11-22 08:00:00 13 15 Sur 27 Sudoeste 0.2 -- -- 97
2019-11-22 07:00:00 12.2 9 Sudoeste 18 Sur 1 -- -- 99
2019-11-22 06:00:00 11.4 5 Nordeste 12 Este 1 -- -- 100
2019-11-22 05:00:00 11.1 6 Este 10 Este 0 -- -- 100
2019-11-22 04:00:00 10.5 0 Calma 4 Este 0.4 -- -- 100
2019-11-22 03:00:00 10.4 0 Calma 5 Este 0 -- -- 100
2019-11-22 02:00:00 10.7 3 Este 6 Este 0 -- -- 99
2019-11-22 01:00:00 10.9 0 Calma 6 Este 0 -- -- 99
2019-11-22 00:00:00 11.6 4 Este 6 Este 0 -- -- 99
2019-11-21 23:00:00 11.8 0 Calma 4 Sudeste 0 -- -- 99
2019-11-21 22:00:00 12.1 0 Calma 5 Oeste 4.2 -- -- 98
2019-11-21 21:00:00 12.5 0 Calma 2 Nordeste 0 -- -- 97
2019-11-21 20:00:00 12.7 0 Calma 8 Sur 0.2 -- -- 96
2019-11-21 19:00:00 13.2 3 Noroeste 9 Sur 0.6 -- -- 94
2019-11-21 18:00:00 14.2 0 Calma 12 Sudoeste 0.2 -- -- 89
2019-11-21 17:00:00 14.8 7 Sudoeste 17 Sudoeste 0 -- -- 83
2019-11-21 16:00:00 14.8 7 Oeste 17 Oeste 0 -- -- 87
2019-11-21 15:00:00 14.3 5 Oeste 12 Oeste 0 -- -- 89
2019-11-21 14:00:00 13.6 6 Sudoeste 15 Sur 0.2 -- -- 95
2019-11-21 13:00:00 12.8 2 Sudoeste 5 Este 0.8 -- -- 98
2019-11-21 12:00:00 12.2 2 Norte 5 Nordeste 1 -- -- 99
2019-11-21 11:00:00 11.6 2 Este 4 Este 0.2 -- -- 100
2019-11-21 10:00:00 11.1 3 Sudeste 7 Este 0.4 -- -- 100
2019-11-21 09:00:00 10.8 2 Este 4 Este 1.6 -- -- 100
2019-11-21 08:00:00 -- -- -- -- -- -- -- -- --
2019-11-21 07:00:00 -- -- -- -- -- -- -- -- --
2019-11-21 06:00:00 -- -- -- -- -- -- -- -- --
2019-11-21 05:00:00 -- -- -- -- -- -- -- -- --
2019-11-21 04:00:00 -- -- -- -- -- -- -- -- --
2019-11-21 03:00:00 -- -- -- -- -- -- -- -- --
2019-11-21 02:00:00 -- -- -- -- -- -- -- -- --
2019-11-21 01:00:00 -- -- -- -- -- -- -- -- --
2019-11-21 00:00:00 -- -- -- -- -- -- -- -- --
2019-11-20 23:00:00 -- -- -- -- -- -- -- -- --
2019-11-20 22:00:00 -- -- -- -- -- -- -- -- --
2019-11-20 21:00:00 10.3 3 Este 4 Sudoeste 0 -- -- 96
2019-11-20 20:00:00 10.8 2 Sudoeste 10 Sudoeste 0 -- -- 93
2019-11-20 19:00:00 11.7 7 Sudoeste 10 Sur 0.2 -- -- 93
2019-11-20 18:00:00 13.2 3 Oeste 7 Oeste 0 -- -- 83
2019-11-20 17:00:00 13.9 3 Oeste 13 Oeste 0 -- -- 80
2019-11-20 16:00:00 14.5 4 Oeste 11 Oeste 0 -- -- 76
2019-11-20 15:00:00 14.6 5 Sudoeste 16 Sur 0 -- -- 78
2019-11-20 14:00:00 13.9 9 Sudoeste 25 Sur 0 -- -- 83
2019-11-20 13:00:00 11.7 15 Sur 26 Sur 0 -- -- 93
2019-11-20 12:00:00 11.4 7 Sur 20 Sur 0 -- -- 91
2019-11-20 11:00:00 9.6 5 Sudeste 21 Este 0.2 -- -- 97
2019-11-20 10:00:00 8.6 10 Este 18 Este 1.6 -- -- 95
2019-11-20 09:00:00 8.3 9 Este 15 Nordeste 2.2 -- -- 95
2019-11-20 08:00:00 8.5 9 Este 17 Este 0.6 -- -- 92
2019-11-20 07:00:00 8.2 3 Este 14 Este 0 -- -- 91
2019-11-20 06:00:00 8.6 8 Este 15 Este 0.6 -- -- 86
2019-11-20 05:00:00 9.5 8 Sudeste 17 Sudeste 0 -- -- 75
2019-11-20 04:00:00 7.8 2 Sudoeste 9 Este 0 -- -- 92
2019-11-20 03:00:00 6.9 0 Calma 3 Noroeste 0 -- -- 95
2019-11-20 02:00:00 6.4 0 Calma 4 Este 0 -- -- 96
2019-11-20 01:00:00 5.8 2 Este 7 Este 0 -- -- 97
2019-11-20 00:00:00 5.2 3 Este 6 Norte 0 -- -- 97
2019-11-19 23:00:00 5.6 0 Calma -- -- 0 -- -- 94
2019-11-19 22:00:00 6.7 3 Sur 4 Nordeste 0 -- -- 94
2019-11-19 21:00:00 7.2 0 Calma 6 Nordeste 0 -- -- 92
2019-11-19 20:00:00 7.8 3 Nordeste 9 Norte 0 -- -- 88
2019-11-19 19:00:00 9.6 2 Nordeste 6 Nordeste 0 -- -- 82
2019-11-19 18:00:00 12 4 Oeste 6 Noroeste 0 -- -- 72
2019-11-19 17:00:00 12.7 5 Noroeste 9 Oeste 0 -- -- 69
2019-11-19 16:00:00 12.8 4 Noroeste 10 Noroeste 0 -- -- 70
2019-11-19 15:00:00 12.6 5 Noroeste 9 Oeste 0 -- -- 72
2019-11-19 14:00:00 12.5 3 Noroeste 7 Oeste 0 -- -- 70
2019-11-19 13:00:00 12.1 3 Oeste 13 Oeste 0 -- -- 73
2019-11-19 12:00:00 10.6 4 Noroeste 8 Noroeste 0 -- -- 81
2019-11-19 11:00:00 7.5 0 Calma 4 Este 0 -- -- 100
2019-11-19 10:00:00 4.8 2 Este 4 Este 0 -- -- 100
2019-11-19 09:00:00 2.5 2 Este 4 Este 0 -- -- 100
2019-11-19 08:00:00 1.7 0 Calma 4 Este 0 -- -- 100
2019-11-19 07:00:00 1.6 3 Sudeste 4 Sudeste 0 -- -- 100
2019-11-19 06:00:00 1.6 3 Este 5 Sudeste 0 -- -- 99
2019-11-19 05:00:00 2.3 3 Sudeste 5 Este 0 -- -- 99
2019-11-19 04:00:00 1.9 2 Nordeste 6 Este 0 -- -- 98
2019-11-19 03:00:00 2.5 5 Este 6 Este 0 -- -- 98
2019-11-19 02:00:00 2.9 0 Calma 3 Sudeste 0 -- -- 98
2019-11-19 01:00:00 3.2 0 Calma 5 Sur 0 -- -- 97
2019-11-19 00:00:00 4.5 4 Este 9 Este 0 -- -- 98
2019-11-18 23:00:00 4 0 Calma 5 Sur 0 -- -- 96
2019-11-18 22:00:00 5 5 Sudeste 9 Sudeste 0 -- -- 96
2019-11-18 21:00:00 5.9 0 Calma 6 Este 0 -- -- 92
2019-11-18 20:00:00 7.2 3 Este 9 Nordeste 0 -- -- 86
2019-11-18 19:00:00 9.6 4 Nordeste 9 Noroeste 0 -- -- 77
2019-11-18 18:00:00 13.1 5 Noroeste 17 Noroeste 0 -- -- 60
2019-11-18 17:00:00 14 9 Noroeste 20 Oeste 0 -- -- 59
2019-11-18 16:00:00 14.2 9 Noroeste 21 Noroeste 0 -- -- 61
2019-11-18 15:00:00 13.4 10 Noroeste 22 Noroeste 0 -- -- 64
2019-11-18 14:00:00 13 5 Norte 19 Nordeste 0 -- -- 67
2019-11-18 13:00:00 11.8 10 Nordeste 25 Norte 0 -- -- 69
2019-11-18 12:00:00 10.7 7 Norte 21 Noroeste 0 -- -- 76
2019-11-18 11:00:00 9.3 13 Noroeste 20 Norte 0 -- -- 83
2019-11-18 10:00:00 8.4 7 Oeste 22 Noroeste 0 -- -- 88
2019-11-18 09:00:00 7.6 3 Noroeste 19 Norte 0 -- -- 92
2019-11-18 08:00:00 7.5 9 Noroeste 20 Noroeste 0 -- -- 92
2019-11-18 07:00:00 7.5 8 Noroeste 19 Noroeste 0 -- -- 92
2019-11-18 06:00:00 7.5 12 Noroeste 21 Oeste 0 -- -- 91
2019-11-18 05:00:00 7.6 14 Noroeste 29 Noroeste 0 -- -- 89
2019-11-18 04:00:00 7.9 7 Noroeste 27 Oeste 0 -- -- 89
2019-11-18 03:00:00 8.4 8 Noroeste 36 Noroeste 0 -- -- 86
2019-11-18 02:00:00 9.8 17 Noroeste 40 Noroeste 0 -- -- 77
2019-11-18 01:00:00 11 26 Norte 46 Noroeste 1 -- -- 86
2019-11-18 00:00:00 12.3 5 Oeste 32 Oeste 4.6 -- -- 99
2019-11-17 23:00:00 12.8 8 Oeste 17 Oeste 2 -- -- 99
2019-11-17 22:00:00 12.7 15 Oeste 27 Oeste 3 -- -- 99
2019-11-17 21:00:00 12.7 8 Oeste 24 Oeste 0.2 -- -- 98
2019-11-17 20:00:00 13 18 Oeste 33 Oeste 0.2 -- -- 95
2019-11-17 19:00:00 13.2 6 Oeste 13 Oeste 0 -- -- 91
2019-11-17 18:00:00 13.9 4 Oeste 8 Oeste 0.2 -- -- 96
2019-11-17 17:00:00 14.2 0 Calma 6 Oeste 0 -- -- 97
2019-11-17 16:00:00 13.9 2 Oeste 12 Oeste 0.2 -- -- 99
2019-11-17 15:00:00 12.7 3 Sudoeste 6 Sudoeste 1 -- -- 100
2019-11-17 14:00:00 11.4 0 Calma 3 Norte 0.4 -- -- 100
2019-11-17 13:00:00 10.3 3 Norte 4 Nordeste 0 -- -- 100
2019-11-17 12:00:00 9.5 0 Calma 5 Este 0 -- -- 100
2019-11-17 11:00:00 8.3 0 Calma 3 Oeste 0 -- -- 100
2019-11-17 10:00:00 7 0 Calma 9 Este 0.2 -- -- 100
2019-11-17 09:00:00 6.3 0 Calma 4 Este 1 -- -- 100
2019-11-17 08:00:00 5.6 0 Calma 4 Sudoeste 0.6 -- -- 100
2019-11-17 07:00:00 4.5 0 Calma 3 Este 0.6 -- -- 100
2019-11-17 06:00:00 4.3 2 Este 3 Sudeste 0.8 -- -- 99
2019-11-17 05:00:00 2.8 0 Calma 3 Este 0 -- -- 99
2019-11-17 04:00:00 2 0 Calma 6 Este 0 -- -- 99
2019-11-17 03:00:00 0.3 2 Este 4 Sudeste 0 -- -- 97
2019-11-17 02:00:00 0.3 3 Este 5 Este 0 -- -- 97
2019-11-17 01:00:00 0.3 0 Calma 4 Este 0 -- -- 95
2019-11-17 00:00:00 0.9 2 Este 7 Sudeste 0 -- -- 94
2019-11-16 23:00:00 1.6 0 Calma 5 Sudeste 0 -- -- 91
2019-11-16 22:00:00 2.1 0 Calma 5 Sudeste 0 -- -- 87
2019-11-16 21:00:00 3.6 0 Calma 6 Este 0 -- -- 80
2019-11-16 20:00:00 5.6 3 Este 8 Nordeste 0 -- -- 73
2019-11-16 19:00:00 8.6 5 Nordeste 14 Oeste 0 -- -- 61
2019-11-16 18:00:00 12.4 6 Noroeste 15 Noroeste 0 -- -- 44
2019-11-16 17:00:00 13.4 8 Noroeste 25 Oeste 0 -- -- 41
2019-11-16 16:00:00 13.5 11 Noroeste 23 Noroeste 0 -- -- 42
2019-11-16 15:00:00 13.1 7 Norte 22 Noroeste 0 -- -- 47
2019-11-16 14:00:00 12 12 Noroeste 22 Noroeste 0 -- -- 51
2019-11-16 13:00:00 11.2 12 Noroeste 18 Oeste 0 -- -- 57
2019-11-16 12:00:00 10.3 5 Norte 14 Norte 0 -- -- 59
2019-11-16 11:00:00 8.4 4 Nordeste 9 Nordeste 0 -- -- 69
2019-11-16 10:00:00 3 0 Calma 4 Sudoeste 0 -- -- 98
2019-11-16 09:00:00 -1.4 2 Este 4 Este 0 -- -- 99
2019-11-16 08:00:00 -2.4 3 Sur 5 Sur 0 -- -- 97
2019-11-16 07:00:00 -1.7 0 Calma 6 Sudeste 0 -- -- 97
2019-11-16 06:00:00 -1.4 0 Calma 4 Sudeste 0 -- -- 96
2019-11-16 05:00:00 -0.6 0 Calma 4 Este 0 -- -- 94
2019-11-16 04:00:00 0.8 2 Sudeste 4 Nordeste 0 -- -- 93
2019-11-16 03:00:00 2.7 0 Calma 8 Oeste 0 -- -- 90
2019-11-16 02:00:00 3.9 3 Sudoeste 18 Noroeste 0 -- -- 83
2019-11-16 01:00:00 5.7 9 Norte 25 Noroeste 0 -- -- 77
2019-11-16 00:00:00 6 11 Norte 25 Norte 0 -- -- 75
2019-11-15 23:00:00 6.7 13 Noroeste 31 Noroeste 0 -- -- 67
2019-11-15 22:00:00 7.4 11 Noroeste 30 Noroeste 0 -- -- 61
2019-11-15 21:00:00 8 12 Noroeste 25 Noroeste 0 -- -- 59
2019-11-15 20:00:00 8.5 9 Noroeste 32 Oeste 0 -- -- 55
2019-11-15 19:00:00 9.4 11 Noroeste 31 Noroeste 0 -- -- 52
2019-11-15 18:00:00 10.6 15 Noroeste 29 Noroeste 0 -- -- 50
2019-11-15 17:00:00 11.2 15 Noroeste 38 Noroeste 0 -- -- 50
2019-11-15 16:00:00 12 16 Noroeste 39 Oeste 0 -- -- 49
2019-11-15 15:00:00 11.8 20 Noroeste 40 Noroeste 0 -- -- 48
2019-11-15 14:00:00 11.5 15 Noroeste 36 Oeste 0 -- -- 55
2019-11-15 13:00:00 10.7 17 Noroeste 38 Noroeste 0 -- -- 60
2019-11-15 12:00:00 9.7 18 Noroeste 40 Noroeste 0 -- -- 64
2019-11-15 11:00:00 8.7 17 Noroeste 39 Noroeste 0 -- -- 67
2019-11-15 10:00:00 7.8 18 Noroeste 35 Noroeste 0 -- -- 73
2019-11-15 09:00:00 6.7 8 Noroeste 33 Noroeste 0 -- -- 78
2019-11-15 08:00:00 7.1 10 Noroeste 44 Oeste 0 -- -- 77
2019-11-15 07:00:00 7.8 24 Noroeste 58 Oeste 0 -- -- 75
2019-11-15 06:00:00 6.9 17 Oeste 31 Oeste 0 -- -- 82
2019-11-15 05:00:00 7.1 14 Oeste 36 Oeste 0 -- -- 81
2019-11-15 04:00:00 7.1 17 Noroeste 32 Oeste 0 -- -- 80
2019-11-15 03:00:00 7.7 18 Oeste 44 Noroeste 0 -- -- 78
2019-11-15 02:00:00 7.9 14 Noroeste 36 Noroeste 0 -- -- 76
2019-11-15 01:00:00 8 20 Noroeste 38 Oeste 0 -- -- 75
2019-11-15 00:00:00 7.1 12 Oeste 37 Oeste 0 -- -- 86
2019-11-14 23:00:00 8.2 13 Noroeste 31 Noroeste 0 -- -- 80
2019-11-14 22:00:00 7.7 4 Noroeste 34 Noroeste 1.4 -- -- 87
2019-11-14 21:00:00 9.4 12 Oeste 27 Noroeste 0 -- -- 84
2019-11-14 20:00:00 10.3 12 Oeste 27 Oeste 0 -- -- 76
2019-11-14 19:00:00 11 13 Oeste 31 Oeste 0 -- -- 72
2019-11-14 18:00:00 11.4 15 Oeste 41 Oeste 0 -- -- 68
2019-11-14 17:00:00 12.6 22 Noroeste 50 Noroeste 0 -- -- 59
2019-11-14 16:00:00 13 20 Oeste 40 Noroeste 0 -- -- 64
2019-11-14 15:00:00 12 19 Noroeste 43 Oeste 0 -- -- 68
2019-11-14 14:00:00 10.6 21 Noroeste 41 Noroeste 0.6 -- -- 79
2019-11-14 13:00:00 10.2 14 Noroeste 35 Noroeste 1 -- -- 88
2019-11-14 12:00:00 10.6 17 Noroeste 45 Oeste 0.4 -- -- 84
2019-11-14 11:00:00 11.4 18 Oeste 40 Oeste 1 -- -- 90
2019-11-14 10:00:00 11.6 17 Oeste 33 Oeste 0 -- -- 89
2019-11-14 09:00:00 11 12 Oeste 25 Oeste 0 -- -- 96
2019-11-14 08:00:00 10.7 15 Oeste 23 Oeste 0.2 -- -- 97
2019-11-14 07:00:00 10.2 6 Oeste 16 Oeste 0 -- -- 97
2019-11-14 06:00:00 10.1 7 Oeste 20 Oeste 0 -- -- 96
2019-11-14 05:00:00 10 4 Oeste 10 Oeste 0 -- -- 93
2019-11-14 04:00:00 10 6 Oeste 18 Oeste 0 -- -- 92
2019-11-14 03:00:00 10.8 13 Oeste 20 Oeste 0 -- -- 89
2019-11-14 02:00:00 10.8 6 Oeste 15 Oeste 0 -- -- 86
2019-11-14 01:00:00 9.9 0 Calma 11 Oeste 0 -- -- 87
2019-11-14 00:00:00 11.5 5 Noroeste 23 Oeste 0 -- -- 80
2019-11-13 23:00:00 12.5 10 Oeste 26 Noroeste 0 -- -- 81
2019-11-13 22:00:00 13.6 7 Noroeste 32 Noroeste 0 -- -- 84
2019-11-13 21:00:00 15.2 17 Noroeste 32 Noroeste 0 -- -- 78
2019-11-13 20:00:00 15.6 10 Noroeste 21 Noroeste 0 -- -- 72
2019-11-13 19:00:00 16.5 8 Oeste 22 Noroeste 0 -- -- 69
2019-11-13 18:00:00 17.6 12 Oeste 25 Oeste 0 -- -- 65
2019-11-13 17:00:00 18.4 13 Oeste 28 Noroeste 0 -- -- 62
2019-11-13 16:00:00 18.2 15 Oeste 27 Noroeste 0 -- -- 64
2019-11-13 15:00:00 18.3 13 Oeste 22 Noroeste 0 -- -- 66
2019-11-13 14:00:00 18.1 11 Noroeste 31 Noroeste 0 -- -- 70
2019-11-13 13:00:00 17.6 16 Noroeste 34 Noroeste 0 -- -- 71
2019-11-13 12:00:00 16.5 12 Oeste 24 Noroeste 0 -- -- 79
2019-11-13 11:00:00 14.9 11 Noroeste 22 Oeste 0 -- -- 90
2019-11-13 10:00:00 13.3 9 Oeste 18 Oeste 1 -- -- 99
2019-11-13 09:00:00 13 9 Oeste 18 Oeste 0.2 -- -- 97
2019-11-13 08:00:00 12.5 4 Oeste 11 Oeste 0.4 -- -- 98
2019-11-13 07:00:00 12.4 3 Este 6 Este 0 -- -- 98
2019-11-13 06:00:00 12.3 0 Calma 5 Nordeste 0 -- -- 97
2019-11-13 05:00:00 12.4 2 Oeste 9 Noroeste 0 -- -- 97
2019-11-13 04:00:00 12.4 4 Oeste 13 Oeste 0 -- -- 96
2019-11-13 03:00:00 12.4 5 Oeste 17 Sudoeste 0 -- -- 96
2019-11-13 02:00:00 12.5 10 Oeste 17 Sudoeste 0 -- -- 95
2019-11-13 01:00:00 12.6 8 Oeste 18 Oeste 0 -- -- 91
2019-11-13 00:00:00 12.8 7 Oeste 13 Oeste 0 -- -- 86
2019-11-12 23:00:00 12.8 10 Oeste 18 Oeste 0 -- -- 84
2019-11-12 22:00:00 13.2 8 Oeste 14 Oeste 0 -- -- 79
2019-11-12 21:00:00 13.4 9 Oeste 19 Oeste 0 -- -- 76
2019-11-12 20:00:00 14 12 Oeste 26 Oeste 0 -- -- 71
2019-11-12 19:00:00 14.2 12 Noroeste 33 Noroeste 0 -- -- 68
2019-11-12 18:00:00 15 14 Noroeste 33 Oeste 0 -- -- 61
2019-11-12 17:00:00 16.6 14 Noroeste 32 Noroeste 0 -- -- 51
2019-11-12 16:00:00 16.7 15 Norte 29 Noroeste 0 -- -- 48
2019-11-12 15:00:00 16.2 13 Noroeste 30 Noroeste 0 -- -- 51
2019-11-12 14:00:00 15.4 17 Noroeste 31 Noroeste 0 -- -- 56
2019-11-12 13:00:00 14.3 17 Noroeste 25 Noroeste 0 -- -- 64
2019-11-12 12:00:00 13.4 14 Noroeste 27 Noroeste 0 -- -- 66
2019-11-12 11:00:00 12.3 6 Norte 14 Nordeste 0 -- -- 73
2019-11-12 10:00:00 11.2 3 Norte 11 Norte 0 -- -- 83
2019-11-12 09:00:00 9.3 4 Norte 15 Noroeste 0 -- -- 93
2019-11-12 08:00:00 9.2 3 Norte 12 Norte 0 -- -- 95
2019-11-12 07:00:00 9.3 4 Noroeste 15 Norte 0 -- -- 96
2019-11-12 06:00:00 9.1 5 Noroeste 17 Noroeste 0 -- -- 100
2019-11-12 05:00:00 5.8 0 Calma 5 Este 0 -- -- 99
2019-11-12 04:00:00 6.3 2 Nordeste 7 Oeste 0 -- -- 99
2019-11-12 03:00:00 6.7 2 Este 6 Este 0 -- -- 98
2019-11-12 02:00:00 7 2 Sudeste 6 Norte 0 -- -- 98
2019-11-12 01:00:00 7.8 4 Sudoeste 7 Norte 0 -- -- 94
2019-11-12 00:00:00 8.7 5 Noroeste 9 Noroeste 0 -- -- 93